sensor_id;sensor_type;location;lat;lon;timestamp;P1;durP1;ratioP1;P2;durP2;ratioP2
16037;SDS011;8123;50.906;6.172;2023-03-01T00:01:21;16.05;;;9.32;;
16037;SDS011;8123;50.906;6.172;2023-03-01T00:03:48;17.92;;;8.85;;
16037;SDS011;8123;50.906;6.172;2023-03-01T00:06:16;20.13;;;8.60;;
16037;SDS011;8123;50.906;6.172;2023-03-01T00:08:42;17.48;;;8.73;;
16037;SDS011;8123;50.906;6.172;2023-03-01T00:11:21;21.63;;;9.47;;
16037;SDS011;8123;50.906;6.172;2023-03-01T00:13:49;12.48;;;8.43;;
16037;SDS011;8123;50.906;6.172;2023-03-01T00:16:19;20.23;;;9.90;;
16037;SDS011;8123;50.906;6.172;2023-03-01T00:18:55;19.67;;;11.02;;
16037;SDS011;8123;50.906;6.172;2023-03-01T00:21:22;22.50;;;10.98;;
16037;SDS011;8123;50.906;6.172;2023-03-01T00:23:48;17.67;;;9.80;;
16037;SDS011;8123;50.906;6.172;2023-03-01T00:26:15;28.92;;;9.88;;
16037;SDS011;8123;50.906;6.172;2023-03-01T00:28:41;20.38;;;9.40;;
16037;SDS011;8123;50.906;6.172;2023-03-01T00:31:12;16.65;;;8.82;;
16037;SDS011;8123;50.906;6.172;2023-03-01T00:33:40;21.73;;;9.00;;
16037;SDS011;8123;50.906;6.172;2023-03-01T00:36:06;24.43;;;10.17;;
16037;SDS011;8123;50.906;6.172;2023-03-01T00:38:36;14.32;;;9.20;;
16037;SDS011;8123;50.906;6.172;2023-03-01T00:41:03;17.25;;;8.38;;
16037;SDS011;8123;50.906;6.172;2023-03-01T00:43:33;29.80;;;10.60;;
16037;SDS011;8123;50.906;6.172;2023-03-01T00:46:05;22.42;;;12.45;;
16037;SDS011;8123;50.906;6.172;2023-03-01T00:48:33;20.17;;;12.48;;
16037;SDS011;8123;50.906;6.172;2023-03-01T00:51:06;23.63;;;12.13;;
16037;SDS011;8123;50.906;6.172;2023-03-01T00:53:34;25.52;;;11.55;;
16037;SDS011;8123;50.906;6.172;2023-03-01T00:56:00;30.70;;;13.85;;
16037;SDS011;8123;50.906;6.172;2023-03-01T00:58:26;23.07;;;11.70;;
16037;SDS011;8123;50.906;6.172;2023-03-01T01:00:51;22.33;;;11.60;;
16037;SDS011;8123;50.906;6.172;2023-03-01T01:03:17;21.37;;;11.37;;
16037;SDS011;8123;50.906;6.172;2023-03-01T01:05:43;22.02;;;11.70;;
16037;SDS011;8123;50.906;6.172;2023-03-01T01:08:09;21.27;;;10.80;;
16037;SDS011;8123;50.906;6.172;2023-03-01T01:10:35;26.67;;;10.97;;
16037;SDS011;8123;50.906;6.172;2023-03-01T01:13:00;26.43;;;10.40;;
16037;SDS011;8123;50.906;6.172;2023-03-01T01:15:26;21.10;;;10.63;;
16037;SDS011;8123;50.906;6.172;2023-03-01T01:17:52;20.97;;;10.63;;
16037;SDS011;8123;50.906;6.172;2023-03-01T01:20:17;24.30;;;10.47;;
16037;SDS011;8123;50.906;6.172;2023-03-01T01:22:43;16.23;;;10.57;;
16037;SDS011;8123;50.906;6.172;2023-03-01T01:25:09;18.23;;;10.43;;
16037;SDS011;8123;50.906;6.172;2023-03-01T01:27:35;23.00;;;9.80;;
16037;SDS011;8123;50.906;6.172;2023-03-01T01:30:01;16.50;;;9.77;;
16037;SDS011;8123;50.906;6.172;2023-03-01T01:32:28;20.80;;;10.15;;
16037;SDS011;8123;50.906;6.172;2023-03-01T01:34:53;36.80;;;10.07;;
16037;SDS011;8123;50.906;6.172;2023-03-01T01:37:19;31.80;;;10.87;;
16037;SDS011;8123;50.906;6.172;2023-03-01T01:39:45;19.83;;;10.80;;
16037;SDS011;8123;50.906;6.172;2023-03-01T01:42:15;17.70;;;10.00;;
16037;SDS011;8123;50.906;6.172;2023-03-01T01:44:42;19.45;;;10.10;;
16037;SDS011;8123;50.906;6.172;2023-03-01T01:47:14;19.95;;;10.10;;
16037;SDS011;8123;50.906;6.172;2023-03-01T01:49:53;20.05;;;10.27;;
16037;SDS011;8123;50.906;6.172;2023-03-01T01:55:25;14.23;;;9.35;;
16037;SDS011;8123;50.906;6.172;2023-03-01T01:57:56;19.77;;;10.85;;
16037;SDS011;8123;50.906;6.172;2023-03-01T02:00:26;19.10;;;10.48;;
16037;SDS011;8123;50.906;6.172;2023-03-01T02:02:57;19.27;;;10.75;;
16037;SDS011;8123;50.906;6.172;2023-03-01T02:05:47;22.15;;;10.82;;
16037;SDS011;8123;50.906;6.172;2023-03-01T02:08:15;18.77;;;9.85;;
16037;SDS011;8123;50.906;6.172;2023-03-01T02:10:43;20.50;;;10.18;;
16037;SDS011;8123;50.906;6.172;2023-03-01T02:13:11;17.52;;;10.30;;
16037;SDS011;8123;50.906;6.172;2023-03-01T02:15:38;22.52;;;10.48;;
16037;SDS011;8123;50.906;6.172;2023-03-01T02:18:05;18.98;;;9.50;;
16037;SDS011;8123;50.906;6.172;2023-03-01T02:20:42;19.65;;;10.55;;
16037;SDS011;8123;50.906;6.172;2023-03-01T02:23:28;18.02;;;9.88;;
16037;SDS011;8123;50.906;6.172;2023-03-01T02:28:57;20.33;;;10.80;;
16037;SDS011;8123;50.906;6.172;2023-03-01T02:31:23;22.80;;;10.83;;
16037;SDS011;8123;50.906;6.172;2023-03-01T02:34:07;19.73;;;11.02;;
16037;SDS011;8123;50.906;6.172;2023-03-01T02:36:38;17.40;;;10.20;;
16037;SDS011;8123;50.906;6.172;2023-03-01T02:39:16;15.30;;;9.52;;
16037;SDS011;8123;50.906;6.172;2023-03-01T02:41:46;25.10;;;11.15;;
16037;SDS011;8123;50.906;6.172;2023-03-01T02:44:15;22.20;;;10.23;;
16037;SDS011;8123;50.906;6.172;2023-03-01T02:46:42;21.40;;;10.53;;
16037;SDS011;8123;50.906;6.172;2023-03-01T02:54:46;20.08;;;10.82;;
16037;SDS011;8123;50.906;6.172;2023-03-01T02:57:27;20.67;;;11.13;;
16037;SDS011;8123;50.906;6.172;2023-03-01T02:59:54;22.02;;;11.38;;
16037;SDS011;8123;50.906;6.172;2023-03-01T03:02:24;19.23;;;9.45;;
16037;SDS011;8123;50.906;6.172;2023-03-01T03:05:12;25.30;;;12.65;;
16037;SDS011;8123;50.906;6.172;2023-03-01T03:07:41;16.92;;;10.18;;
16037;SDS011;8123;50.906;6.172;2023-03-01T03:10:10;20.73;;;12.00;;
16037;SDS011;8123;50.906;6.172;2023-03-01T03:12:38;28.23;;;13.55;;
16037;SDS011;8123;50.906;6.172;2023-03-01T03:15:05;19.90;;;11.13;;
16037;SDS011;8123;50.906;6.172;2023-03-01T03:17:37;21.27;;;11.40;;
16037;SDS011;8123;50.906;6.172;2023-03-01T03:20:05;26.67;;;10.98;;
16037;SDS011;8123;50.906;6.172;2023-03-01T03:22:36;36.70;;;12.48;;
16037;SDS011;8123;50.906;6.172;2023-03-01T03:25:06;29.25;;;11.63;;
16037;SDS011;8123;50.906;6.172;2023-03-01T03:27:39;35.67;;;12.00;;
16037;SDS011;8123;50.906;6.172;2023-03-01T03:30:08;21.98;;;11.30;;
16037;SDS011;8123;50.906;6.172;2023-03-01T03:32:35;31.23;;;12.23;;
16037;SDS011;8123;50.906;6.172;2023-03-01T03:35:02;24.27;;;12.30;;
16037;SDS011;8123;50.906;6.172;2023-03-01T03:37:34;24.38;;;12.77;;
16037;SDS011;8123;50.906;6.172;2023-03-01T03:40:22;19.30;;;10.90;;
16037;SDS011;8123;50.906;6.172;2023-03-01T03:42:48;20.30;;;10.97;;
16037;SDS011;8123;50.906;6.172;2023-03-01T03:45:14;24.73;;;11.90;;
16037;SDS011;8123;50.906;6.172;2023-03-01T03:47:41;26.45;;;12.90;;
16037;SDS011;8123;50.906;6.172;2023-03-01T03:50:07;23.20;;;12.20;;
16037;SDS011;8123;50.906;6.172;2023-03-01T03:52:34;47.15;;;13.15;;
16037;SDS011;8123;50.906;6.172;2023-03-01T03:54:59;24.97;;;12.57;;
16037;SDS011;8123;50.906;6.172;2023-03-01T03:57:25;26.50;;;12.43;;
16037;SDS011;8123;50.906;6.172;2023-03-01T03:59:51;38.83;;;13.80;;
16037;SDS011;8123;50.906;6.172;2023-03-01T04:02:16;23.37;;;12.77;;
16037;SDS011;8123;50.906;6.172;2023-03-01T04:04:47;23.05;;;12.68;;
16037;SDS011;8123;50.906;6.172;2023-03-01T04:07:15;29.83;;;14.48;;
16037;SDS011;8123;50.906;6.172;2023-03-01T04:09:41;28.10;;;14.73;;
16037;SDS011;8123;50.906;6.172;2023-03-01T04:12:07;24.38;;;12.50;;
16037;SDS011;8123;50.906;6.172;2023-03-01T04:14:33;24.17;;;12.98;;
16037;SDS011;8123;50.906;6.172;2023-03-01T04:16:59;29.93;;;14.70;;
16037;SDS011;8123;50.906;6.172;2023-03-01T04:19:25;35.33;;;14.07;;
16037;SDS011;8123;50.906;6.172;2023-03-01T04:21:52;33.70;;;13.93;;
16037;SDS011;8123;50.906;6.172;2023-03-01T04:24:18;28.70;;;12.63;;
16037;SDS011;8123;50.906;6.172;2023-03-01T04:26:44;28.57;;;14.30;;
16037;SDS011;8123;50.906;6.172;2023-03-01T04:29:09;31.37;;;15.00;;
16037;SDS011;8123;50.906;6.172;2023-03-01T04:31:35;31.07;;;14.17;;
16037;SDS011;8123;50.906;6.172;2023-03-01T04:34:00;29.90;;;13.60;;
16037;SDS011;8123;50.906;6.172;2023-03-01T04:36:27;27.58;;;14.57;;
16037;SDS011;8123;50.906;6.172;2023-03-01T04:38:54;27.30;;;13.75;;
16037;SDS011;8123;50.906;6.172;2023-03-01T04:41:21;33.90;;;13.93;;
16037;SDS011;8123;50.906;6.172;2023-03-01T04:43:49;29.48;;;13.60;;
16037;SDS011;8123;50.906;6.172;2023-03-01T04:46:16;32.60;;;14.00;;
16037;SDS011;8123;50.906;6.172;2023-03-01T04:48:43;34.88;;;15.38;;
16037;SDS011;8123;50.906;6.172;2023-03-01T04:51:10;31.05;;;14.80;;
16037;SDS011;8123;50.906;6.172;2023-03-01T04:53:39;33.33;;;15.30;;
16037;SDS011;8123;50.906;6.172;2023-03-01T04:56:06;25.55;;;14.35;;
16037;SDS011;8123;50.906;6.172;2023-03-01T04:58:32;29.50;;;14.67;;
16037;SDS011;8123;50.906;6.172;2023-03-01T05:00:57;30.43;;;14.83;;
16037;SDS011;8123;50.906;6.172;2023-03-01T05:03:23;32.33;;;15.17;;
16037;SDS011;8123;50.906;6.172;2023-03-01T05:05:50;24.58;;;15.45;;
16037;SDS011;8123;50.906;6.172;2023-03-01T05:08:16;29.70;;;15.52;;
16037;SDS011;8123;50.906;6.172;2023-03-01T05:10:45;28.50;;;15.65;;
16037;SDS011;8123;50.906;6.172;2023-03-01T05:13:13;26.27;;;14.18;;
16037;SDS011;8123;50.906;6.172;2023-03-01T05:15:45;28.08;;;13.85;;
16037;SDS011;8123;50.906;6.172;2023-03-01T05:18:13;28.40;;;15.00;;
16037;SDS011;8123;50.906;6.172;2023-03-01T05:20:38;28.93;;;15.50;;
16037;SDS011;8123;50.906;6.172;2023-03-01T05:23:04;27.90;;;15.20;;
16037;SDS011;8123;50.906;6.172;2023-03-01T05:25:33;29.98;;;16.75;;
16037;SDS011;8123;50.906;6.172;2023-03-01T05:28:00;28.75;;;15.40;;
16037;SDS011;8123;50.906;6.172;2023-03-01T05:30:29;29.63;;;15.20;;
16037;SDS011;8123;50.906;6.172;2023-03-01T05:32:56;36.20;;;14.50;;
16037;SDS011;8123;50.906;6.172;2023-03-01T05:35:23;28.80;;;15.57;;
16037;SDS011;8123;50.906;6.172;2023-03-01T05:37:49;30.00;;;15.75;;
16037;SDS011;8123;50.906;6.172;2023-03-01T05:40:16;23.60;;;14.70;;
16037;SDS011;8123;50.906;6.172;2023-03-01T05:42:44;31.20;;;15.23;;
16037;SDS011;8123;50.906;6.172;2023-03-01T05:45:12;27.95;;;14.13;;
16037;SDS011;8123;50.906;6.172;2023-03-01T05:47:41;29.63;;;15.27;;
16037;SDS011;8123;50.906;6.172;2023-03-01T05:50:12;28.88;;;14.30;;
16037;SDS011;8123;50.906;6.172;2023-03-01T05:52:43;31.17;;;15.43;;
16037;SDS011;8123;50.906;6.172;2023-03-01T05:55:13;23.13;;;13.80;;
16037;SDS011;8123;50.906;6.172;2023-03-01T05:57:40;29.48;;;14.38;;
16037;SDS011;8123;50.906;6.172;2023-03-01T06:00:07;26.90;;;14.90;;
16037;SDS011;8123;50.906;6.172;2023-03-01T06:02:34;28.55;;;16.73;;
16037;SDS011;8123;50.906;6.172;2023-03-01T06:05:00;25.70;;;13.27;;
16037;SDS011;8123;50.906;6.172;2023-03-01T06:07:25;32.10;;;14.57;;
16037;SDS011;8123;50.906;6.172;2023-03-01T06:09:51;29.53;;;15.40;;
16037;SDS011;8123;50.906;6.172;2023-03-01T06:12:16;32.40;;;14.40;;
16037;SDS011;8123;50.906;6.172;2023-03-01T06:14:42;31.80;;;14.37;;
16037;SDS011;8123;50.906;6.172;2023-03-01T06:17:08;33.10;;;14.37;;
16037;SDS011;8123;50.906;6.172;2023-03-01T06:19:33;31.73;;;14.23;;
16037;SDS011;8123;50.906;6.172;2023-03-01T06:21:59;30.40;;;14.30;;
16037;SDS011;8123;50.906;6.172;2023-03-01T06:24:24;28.63;;;14.10;;
16037;SDS011;8123;50.906;6.172;2023-03-01T06:26:52;34.10;;;14.87;;
16037;SDS011;8123;50.906;6.172;2023-03-01T06:29:18;33.45;;;14.73;;
16037;SDS011;8123;50.906;6.172;2023-03-01T06:31:43;42.47;;;16.17;;
16037;SDS011;8123;50.906;6.172;2023-03-01T06:34:10;32.28;;;14.30;;
16037;SDS011;8123;50.906;6.172;2023-03-01T06:36:38;29.58;;;14.90;;
16037;SDS011;8123;50.906;6.172;2023-03-01T06:39:04;30.20;;;14.75;;
16037;SDS011;8123;50.906;6.172;2023-03-01T06:41:30;33.33;;;15.60;;
16037;SDS011;8123;50.906;6.172;2023-03-01T06:43:56;27.00;;;14.27;;
16037;SDS011;8123;50.906;6.172;2023-03-01T06:46:22;37.63;;;14.53;;
16037;SDS011;8123;50.906;6.172;2023-03-01T06:48:47;37.10;;;16.60;;
16037;SDS011;8123;50.906;6.172;2023-03-01T06:51:13;36.53;;;15.60;;
16037;SDS011;8123;50.906;6.172;2023-03-01T06:53:38;33.60;;;17.10;;
16037;SDS011;8123;50.906;6.172;2023-03-01T06:56:04;30.60;;;15.77;;
16037;SDS011;8123;50.906;6.172;2023-03-01T06:58:30;34.70;;;15.77;;
16037;SDS011;8123;50.906;6.172;2023-03-01T07:00:55;33.93;;;15.97;;
16037;SDS011;8123;50.906;6.172;2023-03-01T07:03:22;32.47;;;14.93;;
16037;SDS011;8123;50.906;6.172;2023-03-01T07:05:48;42.65;;;15.75;;
16037;SDS011;8123;50.906;6.172;2023-03-01T07:08:17;34.80;;;17.52;;
16037;SDS011;8123;50.906;6.172;2023-03-01T07:10:43;37.88;;;16.40;;
16037;SDS011;8123;50.906;6.172;2023-03-01T07:13:08;36.77;;;17.47;;
16037;SDS011;8123;50.906;6.172;2023-03-01T07:15:34;40.77;;;17.87;;
16037;SDS011;8123;50.906;6.172;2023-03-01T07:18:00;42.03;;;19.80;;
16037;SDS011;8123;50.906;6.172;2023-03-01T07:20:25;32.00;;;16.17;;
16037;SDS011;8123;50.906;6.172;2023-03-01T07:22:51;36.00;;;16.83;;
16037;SDS011;8123;50.906;6.172;2023-03-01T07:25:18;38.60;;;17.42;;
16037;SDS011;8123;50.906;6.172;2023-03-01T07:30:15;36.25;;;17.05;;
16037;SDS011;8123;50.906;6.172;2023-03-01T07:32:41;34.33;;;15.50;;
16037;SDS011;8123;50.906;6.172;2023-03-01T07:35:07;34.87;;;16.07;;
16037;SDS011;8123;50.906;6.172;2023-03-01T07:37:33;30.63;;;15.25;;
16037;SDS011;8123;50.906;6.172;2023-03-01T07:39:58;44.43;;;17.40;;
16037;SDS011;8123;50.906;6.172;2023-03-01T07:42:24;38.87;;;16.23;;
16037;SDS011;8123;50.906;6.172;2023-03-01T07:44:49;37.87;;;16.57;;
16037;SDS011;8123;50.906;6.172;2023-03-01T07:47:15;31.23;;;14.97;;
16037;SDS011;8123;50.906;6.172;2023-03-01T07:49:41;30.60;;;14.80;;
16037;SDS011;8123;50.906;6.172;2023-03-01T07:52:09;35.50;;;16.02;;
16037;SDS011;8123;50.906;6.172;2023-03-01T07:54:36;36.00;;;15.93;;
16037;SDS011;8123;50.906;6.172;2023-03-01T07:57:02;28.70;;;13.73;;
16037;SDS011;8123;50.906;6.172;2023-03-01T07:59:28;27.88;;;14.30;;
16037;SDS011;8123;50.906;6.172;2023-03-01T08:01:57;35.13;;;14.98;;
16037;SDS011;8123;50.906;6.172;2023-03-01T08:04:23;33.03;;;15.40;;
16037;SDS011;8123;50.906;6.172;2023-03-01T08:06:51;38.25;;;15.32;;
16037;SDS011;8123;50.906;6.172;2023-03-01T08:09:17;26.42;;;14.32;;
16037;SDS011;8123;50.906;6.172;2023-03-01T08:11:43;36.80;;;16.10;;
16037;SDS011;8123;50.906;6.172;2023-03-01T08:14:09;24.53;;;13.97;;
16037;SDS011;8123;50.906;6.172;2023-03-01T08:16:35;32.45;;;14.98;;
16037;SDS011;8123;50.906;6.172;2023-03-01T08:19:08;34.45;;;15.75;;
16037;SDS011;8123;50.906;6.172;2023-03-01T08:21:35;37.10;;;14.55;;
16037;SDS011;8123;50.906;6.172;2023-03-01T08:24:02;27.30;;;13.88;;
16037;SDS011;8123;50.906;6.172;2023-03-01T08:26:31;36.17;;;14.95;;
16037;SDS011;8123;50.906;6.172;2023-03-01T08:28:57;34.10;;;15.25;;
16037;SDS011;8123;50.906;6.172;2023-03-01T08:31:28;33.45;;;15.38;;
16037;SDS011;8123;50.906;6.172;2023-03-01T08:33:57;33.83;;;14.13;;
16037;SDS011;8123;50.906;6.172;2023-03-01T08:36:28;32.22;;;16.50;;
16037;SDS011;8123;50.906;6.172;2023-03-01T08:38:56;28.80;;;13.90;;
16037;SDS011;8123;50.906;6.172;2023-03-01T08:41:22;33.35;;;14.45;;
16037;SDS011;8123;50.906;6.172;2023-03-01T08:43:48;34.70;;;15.33;;
16037;SDS011;8123;50.906;6.172;2023-03-01T08:46:14;31.15;;;14.35;;
16037;SDS011;8123;50.906;6.172;2023-03-01T08:48:39;25.50;;;14.03;;
16037;SDS011;8123;50.906;6.172;2023-03-01T08:51:11;24.15;;;14.00;;
16037;SDS011;8123;50.906;6.172;2023-03-01T08:53:39;30.63;;;13.32;;
16037;SDS011;8123;50.906;6.172;2023-03-01T08:56:06;32.83;;;15.57;;
16037;SDS011;8123;50.906;6.172;2023-03-01T08:58:31;24.80;;;13.70;;
16037;SDS011;8123;50.906;6.172;2023-03-01T09:00:57;31.20;;;15.27;;
16037;SDS011;8123;50.906;6.172;2023-03-01T09:03:23;36.87;;;14.43;;
16037;SDS011;8123;50.906;6.172;2023-03-01T09:05:50;29.23;;;14.18;;
16037;SDS011;8123;50.906;6.172;2023-03-01T09:08:17;39.15;;;14.65;;
16037;SDS011;8123;50.906;6.172;2023-03-01T09:10:42;32.88;;;14.13;;
16037;SDS011;8123;50.906;6.172;2023-03-01T09:13:08;30.13;;;15.00;;
16037;SDS011;8123;50.906;6.172;2023-03-01T09:15:36;29.67;;;13.15;;
16037;SDS011;8123;50.906;6.172;2023-03-01T09:18:02;32.08;;;14.77;;
16037;SDS011;8123;50.906;6.172;2023-03-01T09:20:28;29.77;;;15.30;;
16037;SDS011;8123;50.906;6.172;2023-03-01T09:22:55;27.95;;;14.20;;
16037;SDS011;8123;50.906;6.172;2023-03-01T09:25:21;31.53;;;15.17;;
16037;SDS011;8123;50.906;6.172;2023-03-01T09:27:47;30.27;;;14.82;;
16037;SDS011;8123;50.906;6.172;2023-03-01T09:30:16;31.65;;;14.90;;
16037;SDS011;8123;50.906;6.172;2023-03-01T09:32:42;30.93;;;15.10;;
16037;SDS011;8123;50.906;6.172;2023-03-01T09:35:10;29.05;;;13.95;;
16037;SDS011;8123;50.906;6.172;2023-03-01T09:37:36;28.05;;;13.73;;
16037;SDS011;8123;50.906;6.172;2023-03-01T09:40:03;27.33;;;14.13;;
16037;SDS011;8123;50.906;6.172;2023-03-01T09:42:32;26.63;;;13.25;;
16037;SDS011;8123;50.906;6.172;2023-03-01T09:45:45;29.75;;;15.05;;
16037;SDS011;8123;50.906;6.172;2023-03-01T09:48:02;30.63;;;14.23;;
16037;SDS011;8123;50.906;6.172;2023-03-01T09:50:40;31.92;;;13.88;;
16037;SDS011;8123;50.906;6.172;2023-03-01T09:53:15;37.25;;;15.88;;
16037;SDS011;8123;50.906;6.172;2023-03-01T10:09:44;28.23;;;14.30;;
16037;SDS011;8123;50.906;6.172;2023-03-01T10:12:18;32.88;;;15.07;;
16037;SDS011;8123;50.906;6.172;2023-03-01T10:17:37;29.05;;;13.95;;
16037;SDS011;8123;50.906;6.172;2023-03-01T10:20:16;28.80;;;15.00;;
16037;SDS011;8123;50.906;6.172;2023-03-01T10:22:46;27.98;;;13.98;;
16037;SDS011;8123;50.906;6.172;2023-03-01T10:25:15;32.08;;;13.63;;
16037;SDS011;8123;50.906;6.172;2023-03-01T10:27:54;25.70;;;14.50;;
16037;SDS011;8123;50.906;6.172;2023-03-01T10:30:39;31.17;;;14.43;;
16037;SDS011;8123;50.906;6.172;2023-03-01T10:36:07;28.13;;;13.50;;
16037;SDS011;8123;50.906;6.172;2023-03-01T10:38:47;26.70;;;14.02;;
16037;SDS011;8123;50.906;6.172;2023-03-01T10:41:17;20.93;;;12.97;;
16037;SDS011;8123;50.906;6.172;2023-03-01T10:46:24;26.47;;;14.57;;
16037;SDS011;8123;50.906;6.172;2023-03-01T10:51:39;27.00;;;12.90;;
16037;SDS011;8123;50.906;6.172;2023-03-01T10:54:06;30.17;;;14.60;;
16037;SDS011;8123;50.906;6.172;2023-03-01T10:57:02;23.88;;;14.57;;
16037;SDS011;8123;50.906;6.172;2023-03-01T10:59:31;26.07;;;12.70;;
16037;SDS011;8123;50.906;6.172;2023-03-01T11:04:29;36.00;;;14.37;;
16037;SDS011;8123;50.906;6.172;2023-03-01T11:06:58;34.73;;;14.83;;
16037;SDS011;8123;50.906;6.172;2023-03-01T11:09:25;38.60;;;14.30;;
16037;SDS011;8123;50.906;6.172;2023-03-01T11:11:56;31.93;;;13.40;;
16037;SDS011;8123;50.906;6.172;2023-03-01T11:14:46;37.13;;;15.43;;
16037;SDS011;8123;50.906;6.172;2023-03-01T11:19:38;29.33;;;14.23;;
16037;SDS011;8123;50.906;6.172;2023-03-01T11:22:14;25.30;;;14.00;;
16037;SDS011;8123;50.906;6.172;2023-03-01T11:24:49;26.80;;;14.17;;
16037;SDS011;8123;50.906;6.172;2023-03-01T11:29:46;30.30;;;13.37;;
16037;SDS011;8123;50.906;6.172;2023-03-01T11:33:33;25.60;;;13.20;;
16037;SDS011;8123;50.906;6.172;2023-03-01T11:35:32;31.20;;;14.20;;
16037;SDS011;8123;50.906;6.172;2023-03-01T11:43:22;29.27;;;13.10;;
16037;SDS011;8123;50.906;6.172;2023-03-01T11:54:26;32.80;;;14.87;;
16037;SDS011;8123;50.906;6.172;2023-03-01T12:00:13;36.17;;;14.67;;
16037;SDS011;8123;50.906;6.172;2023-03-01T12:08:41;22.77;;;13.30;;
16037;SDS011;8123;50.906;6.172;2023-03-01T12:11:27;24.77;;;14.30;;
16037;SDS011;8123;50.906;6.172;2023-03-01T12:14:13;32.00;;;14.13;;
16037;SDS011;8123;50.906;6.172;2023-03-01T12:22:37;25.23;;;13.00;;
16037;SDS011;8123;50.906;6.172;2023-03-01T12:30:42;29.50;;;12.90;;
16037;SDS011;8123;50.906;6.172;2023-03-01T12:38:54;21.77;;;11.43;;
16037;SDS011;8123;50.906;6.172;2023-03-01T12:41:40;21.40;;;11.00;;
16037;SDS011;8123;50.906;6.172;2023-03-01T12:47:23;22.13;;;12.50;;
16037;SDS011;8123;50.906;6.172;2023-03-01T12:54:52;19.33;;;10.23;;
16037;SDS011;8123;50.906;6.172;2023-03-01T12:57:28;19.87;;;11.10;;
16037;SDS011;8123;50.906;6.172;2023-03-01T13:03:28;21.03;;;11.23;;
16037;SDS011;8123;50.906;6.172;2023-03-01T13:06:11;20.60;;;11.90;;
16037;SDS011;8123;50.906;6.172;2023-03-01T13:11:40;25.13;;;12.70;;
16037;SDS011;8123;50.906;6.172;2023-03-01T13:16:54;21.73;;;12.20;;
16037;SDS011;8123;50.906;6.172;2023-03-01T13:21:47;22.47;;;11.17;;
16037;SDS011;8123;50.906;6.172;2023-03-01T13:24:25;24.37;;;11.60;;
16037;SDS011;8123;50.906;6.172;2023-03-01T13:37:44;21.60;;;12.50;;
16037;SDS011;8123;50.906;6.172;2023-03-01T13:42:47;19.70;;;11.40;;
16037;SDS011;8123;50.906;6.172;2023-03-01T13:45:15;23.87;;;12.73;;
16037;SDS011;8123;50.906;6.172;2023-03-01T13:47:48;21.57;;;11.53;;
16037;SDS011;8123;50.906;6.172;2023-03-01T13:50:27;19.07;;;11.10;;
16037;SDS011;8123;50.906;6.172;2023-03-01T13:52:55;18.80;;;11.43;;
16037;SDS011;8123;50.906;6.172;2023-03-01T13:55:26;23.07;;;11.27;;
16037;SDS011;8123;50.906;6.172;2023-03-01T13:58:26;20.30;;;11.70;;
16037;SDS011;8123;50.906;6.172;2023-03-01T14:01:01;21.63;;;11.27;;
16037;SDS011;8123;50.906;6.172;2023-03-01T14:03:29;24.83;;;11.90;;
16037;SDS011;8123;50.906;6.172;2023-03-01T14:08:23;20.67;;;10.70;;
16037;SDS011;8123;50.906;6.172;2023-03-01T14:13:41;16.60;;;10.37;;
16037;SDS011;8123;50.906;6.172;2023-03-01T14:16:33;16.03;;;9.27;;
16037;SDS011;8123;50.906;6.172;2023-03-01T14:19:23;27.93;;;10.60;;
16037;SDS011;8123;50.906;6.172;2023-03-01T14:22:12;19.67;;;10.17;;
16037;SDS011;8123;50.906;6.172;2023-03-01T14:25:00;17.57;;;10.13;;
16037;SDS011;8123;50.906;6.172;2023-03-01T14:27:30;14.00;;;9.20;;
16037;SDS011;8123;50.906;6.172;2023-03-01T14:30:10;23.60;;;10.20;;
16037;SDS011;8123;50.906;6.172;2023-03-01T14:32:39;20.57;;;9.20;;
16037;SDS011;8123;50.906;6.172;2023-03-01T14:35:19;17.60;;;9.33;;
16037;SDS011;8123;50.906;6.172;2023-03-01T14:37:46;18.37;;;10.10;;
16037;SDS011;8123;50.906;6.172;2023-03-01T14:40:47;15.97;;;9.43;;
16037;SDS011;8123;50.906;6.172;2023-03-01T14:43:11;15.00;;;7.77;;
16037;SDS011;8123;50.906;6.172;2023-03-01T14:45:46;16.23;;;9.03;;
16037;SDS011;8123;50.906;6.172;2023-03-01T14:48:14;18.63;;;9.20;;
16037;SDS011;8123;50.906;6.172;2023-03-01T14:50:41;19.60;;;9.07;;
16037;SDS011;8123;50.906;6.172;2023-03-01T14:53:27;14.67;;;7.53;;
16037;SDS011;8123;50.906;6.172;2023-03-01T14:56:03;16.83;;;9.10;;
16037;SDS011;8123;50.906;6.172;2023-03-01T14:58:31;17.70;;;8.57;;
16037;SDS011;8123;50.906;6.172;2023-03-01T15:01:02;21.23;;;8.53;;
16037;SDS011;8123;50.906;6.172;2023-03-01T15:03:33;16.67;;;9.07;;
16037;SDS011;8123;50.906;6.172;2023-03-01T15:06:03;15.50;;;8.20;;
16037;SDS011;8123;50.906;6.172;2023-03-01T15:08:30;11.40;;;7.93;;
16037;SDS011;8123;50.906;6.172;2023-03-01T15:11:15;19.93;;;9.40;;
16037;SDS011;8123;50.906;6.172;2023-03-01T15:13:52;11.53;;;7.43;;
16037;SDS011;8123;50.906;6.172;2023-03-01T15:18:55;18.33;;;8.87;;
16037;SDS011;8123;50.906;6.172;2023-03-01T15:21:31;8.83;;;7.20;;
16037;SDS011;8123;50.906;6.172;2023-03-01T15:26:44;18.23;;;9.23;;
16037;SDS011;8123;50.906;6.172;2023-03-01T15:29:27;15.57;;;7.60;;
16037;SDS011;8123;50.906;6.172;2023-03-01T15:34:23;13.07;;;7.87;;
16037;SDS011;8123;50.906;6.172;2023-03-01T15:36:50;14.17;;;7.73;;
16037;SDS011;8123;50.906;6.172;2023-03-01T15:39:39;12.97;;;8.80;;
16037;SDS011;8123;50.906;6.172;2023-03-01T15:44:36;17.30;;;8.37;;
16037;SDS011;8123;50.906;6.172;2023-03-01T15:47:08;11.80;;;8.43;;
16037;SDS011;8123;50.906;6.172;2023-03-01T15:49:51;26.33;;;9.00;;
16037;SDS011;8123;50.906;6.172;2023-03-01T15:52:23;10.90;;;7.90;;
16037;SDS011;8123;50.906;6.172;2023-03-01T15:54:57;16.80;;;8.20;;
16037;SDS011;8123;50.906;6.172;2023-03-01T15:57:25;9.87;;;6.73;;
16037;SDS011;8123;50.906;6.172;2023-03-01T15:59:51;16.67;;;7.90;;
16037;SDS011;8123;50.906;6.172;2023-03-01T16:02:17;23.27;;;8.90;;
16037;SDS011;8123;50.906;6.172;2023-03-01T16:04:45;19.20;;;7.30;;
16037;SDS011;8123;50.906;6.172;2023-03-01T16:07:12;16.33;;;8.87;;
16037;SDS011;8123;50.906;6.172;2023-03-01T16:09:37;14.73;;;8.80;;
16037;SDS011;8123;50.906;6.172;2023-03-01T16:12:03;19.10;;;8.47;;
16037;SDS011;8123;50.906;6.172;2023-03-01T16:14:30;16.93;;;8.60;;
16037;SDS011;8123;50.906;6.172;2023-03-01T16:16:56;26.50;;;9.87;;
16037;SDS011;8123;50.906;6.172;2023-03-01T16:19:22;28.23;;;9.47;;
16037;SDS011;8123;50.906;6.172;2023-03-01T16:21:47;17.70;;;8.77;;
16037;SDS011;8123;50.906;6.172;2023-03-01T16:24:14;16.40;;;9.83;;
16037;SDS011;8123;50.906;6.172;2023-03-01T16:26:40;31.37;;;9.23;;
16037;SDS011;8123;50.906;6.172;2023-03-01T16:29:07;15.77;;;8.43;;
16037;SDS011;8123;50.906;6.172;2023-03-01T16:31:33;18.57;;;8.20;;
16037;SDS011;8123;50.906;6.172;2023-03-01T16:33:58;24.97;;;9.03;;
16037;SDS011;8123;50.906;6.172;2023-03-01T16:36:25;15.63;;;8.53;;
16037;SDS011;8123;50.906;6.172;2023-03-01T16:38:53;21.40;;;9.80;;
16037;SDS011;8123;50.906;6.172;2023-03-01T16:41:21;14.37;;;9.77;;
16037;SDS011;8123;50.906;6.172;2023-03-01T16:43:48;19.30;;;10.63;;
16037;SDS011;8123;50.906;6.172;2023-03-01T16:46:15;17.47;;;9.20;;
16037;SDS011;8123;50.906;6.172;2023-03-01T16:48:42;15.80;;;9.10;;
16037;SDS011;8123;50.906;6.172;2023-03-01T16:51:08;22.47;;;8.97;;
16037;SDS011;8123;50.906;6.172;2023-03-01T16:53:34;22.17;;;8.87;;
16037;SDS011;8123;50.906;6.172;2023-03-01T16:56:01;23.93;;;9.13;;
16037;SDS011;8123;50.906;6.172;2023-03-01T16:58:28;16.40;;;9.07;;
16037;SDS011;8123;50.906;6.172;2023-03-01T17:00:55;19.50;;;8.37;;
16037;SDS011;8123;50.906;6.172;2023-03-01T17:03:22;14.60;;;8.80;;
16037;SDS011;8123;50.906;6.172;2023-03-01T17:05:49;19.07;;;8.97;;
16037;SDS011;8123;50.906;6.172;2023-03-01T17:08:15;22.27;;;9.90;;